sensor_id;sensor_type;location;lat;lon;timestamp;P1;durP1;ratioP1;P2;durP2;ratioP2
49310;SDS011;35177;45.900;5.946;2022-08-19T00:01:16;9.82;;;8.05;;
49310;SDS011;35177;45.900;5.946;2022-08-19T00:03:42;9.55;;;7.57;;
49310;SDS011;35177;45.900;5.946;2022-08-19T00:06:07;11.50;;;7.95;;
49310;SDS011;35177;45.900;5.946;2022-08-19T00:08:35;11.05;;;8.27;;
49310;SDS011;35177;45.900;5.946;2022-08-19T00:11:00;10.68;;;8.90;;
49310;SDS011;35177;45.900;5.946;2022-08-19T00:13:26;8.77;;;7.95;;
49310;SDS011;35177;45.900;5.946;2022-08-19T00:15:54;10.32;;;7.82;;
49310;SDS011;35177;45.900;5.946;2022-08-19T00:18:20;10.20;;;8.85;;
49310;SDS011;35177;45.900;5.946;2022-08-19T00:20:45;11.10;;;7.63;;
49310;SDS011;35177;45.900;5.946;2022-08-19T00:23:11;9.90;;;7.80;;
49310;SDS011;35177;45.900;5.946;2022-08-19T00:25:36;14.35;;;8.77;;
49310;SDS011;35177;45.900;5.946;2022-08-19T00:28:02;8.50;;;7.70;;
49310;SDS011;35177;45.900;5.946;2022-08-19T00:30:29;10.10;;;8.00;;
49310;SDS011;35177;45.900;5.946;2022-08-19T00:32:55;11.18;;;8.50;;
49310;SDS011;35177;45.900;5.946;2022-08-19T00:35:21;11.45;;;8.75;;
49310;SDS011;35177;45.900;5.946;2022-08-19T00:37:49;12.13;;;9.60;;
49310;SDS011;35177;45.900;5.946;2022-08-19T00:40:15;10.65;;;9.20;;
49310;SDS011;35177;45.900;5.946;2022-08-19T00:42:43;16.17;;;9.80;;
49310;SDS011;35177;45.900;5.946;2022-08-19T00:45:18;12.20;;;9.88;;
49310;SDS011;35177;45.900;5.946;2022-08-19T00:47:50;9.60;;;8.60;;
49310;SDS011;35177;45.900;5.946;2022-08-19T00:50:16;10.75;;;9.63;;
49310;SDS011;35177;45.900;5.946;2022-08-19T00:52:46;13.65;;;9.65;;
49310;SDS011;35177;45.900;5.946;2022-08-19T00:55:23;11.40;;;9.73;;
49310;SDS011;35177;45.900;5.946;2022-08-19T00:57:53;12.73;;;9.85;;
49310;SDS011;35177;45.900;5.946;2022-08-19T01:00:22;12.02;;;9.75;;
49310;SDS011;35177;45.900;5.946;2022-08-19T01:02:49;10.40;;;9.30;;
49310;SDS011;35177;45.900;5.946;2022-08-19T01:05:20;11.10;;;9.70;;
49310;SDS011;35177;45.900;5.946;2022-08-19T01:07:48;10.20;;;8.57;;
49310;SDS011;35177;45.900;5.946;2022-08-19T01:10:19;11.75;;;8.98;;
49310;SDS011;35177;45.900;5.946;2022-08-19T01:12:47;11.80;;;8.85;;
49310;SDS011;35177;45.900;5.946;2022-08-19T01:15:14;9.52;;;8.57;;
49310;SDS011;35177;45.900;5.946;2022-08-19T01:17:42;9.82;;;8.80;;
49310;SDS011;35177;45.900;5.946;2022-08-19T01:20:11;10.52;;;8.85;;
49310;SDS011;35177;45.900;5.946;2022-08-19T01:25:10;12.38;;;8.50;;
49310;SDS011;35177;45.900;5.946;2022-08-19T01:27:39;9.30;;;8.38;;
49310;SDS011;35177;45.900;5.946;2022-08-19T01:30:07;10.35;;;7.80;;
49310;SDS011;35177;45.900;5.946;2022-08-19T01:32:35;10.80;;;8.80;;
49310;SDS011;35177;45.900;5.946;2022-08-19T01:35:01;16.10;;;8.00;;
49310;SDS011;35177;45.900;5.946;2022-08-19T01:37:28;11.80;;;8.00;;
49310;SDS011;35177;45.900;5.946;2022-08-19T01:39:55;12.88;;;8.80;;
49310;SDS011;35177;45.900;5.946;2022-08-19T01:42:20;10.18;;;7.75;;
49310;SDS011;35177;45.900;5.946;2022-08-19T01:44:47;11.70;;;8.18;;
49310;SDS011;35177;45.900;5.946;2022-08-19T01:47:12;16.20;;;8.77;;
49310;SDS011;35177;45.900;5.946;2022-08-19T01:49:38;12.75;;;9.43;;
49310;SDS011;35177;45.900;5.946;2022-08-19T01:52:04;9.60;;;8.60;;
49310;SDS011;35177;45.900;5.946;2022-08-19T01:54:30;10.63;;;8.40;;
49310;SDS011;35177;45.900;5.946;2022-08-19T01:57:10;11.88;;;9.40;;
49310;SDS011;35177;45.900;5.946;2022-08-19T01:59:39;12.30;;;9.13;;
49310;SDS011;35177;45.900;5.946;2022-08-19T02:02:06;10.10;;;9.02;;
49310;SDS011;35177;45.900;5.946;2022-08-19T02:04:36;10.65;;;9.55;;
49310;SDS011;35177;45.900;5.946;2022-08-19T02:07:05;11.13;;;9.13;;
49310;SDS011;35177;45.900;5.946;2022-08-19T02:09:33;13.32;;;9.93;;
49310;SDS011;35177;45.900;5.946;2022-08-19T02:11:59;11.10;;;9.45;;
49310;SDS011;35177;45.900;5.946;2022-08-19T02:14:24;9.93;;;8.90;;
49310;SDS011;35177;45.900;5.946;2022-08-19T02:16:50;9.40;;;8.48;;
49310;SDS011;35177;45.900;5.946;2022-08-19T02:19:15;10.48;;;9.40;;
49310;SDS011;35177;45.900;5.946;2022-08-19T02:21:41;11.10;;;9.40;;
49310;SDS011;35177;45.900;5.946;2022-08-19T02:24:08;10.38;;;9.10;;
49310;SDS011;35177;45.900;5.946;2022-08-19T02:26:34;13.18;;;9.25;;
49310;SDS011;35177;45.900;5.946;2022-08-19T02:28:59;11.10;;;9.57;;
49310;SDS011;35177;45.900;5.946;2022-08-19T02:31:25;11.50;;;9.30;;
49310;SDS011;35177;45.900;5.946;2022-08-19T02:33:53;14.77;;;9.82;;
49310;SDS011;35177;45.900;5.946;2022-08-19T02:36:20;11.50;;;9.45;;
49310;SDS011;35177;45.900;5.946;2022-08-19T02:38:46;11.82;;;9.45;;
49310;SDS011;35177;45.900;5.946;2022-08-19T02:41:19;9.88;;;8.45;;
49310;SDS011;35177;45.900;5.946;2022-08-19T02:43:47;2.50;;;2.30;;
49310;SDS011;35177;45.900;5.946;2022-08-19T02:46:17;3.13;;;2.40;;
49310;SDS011;35177;45.900;5.946;2022-08-19T02:48:48;4.53;;;2.05;;
49310;SDS011;35177;45.900;5.946;2022-08-19T02:51:16;2.75;;;1.70;;
49310;SDS011;35177;45.900;5.946;2022-08-19T02:53:43;3.28;;;1.98;;
49310;SDS011;35177;45.900;5.946;2022-08-19T02:56:09;1.48;;;1.35;;
49310;SDS011;35177;45.900;5.946;2022-08-19T02:58:34;3.15;;;1.70;;
49310;SDS011;35177;45.900;5.946;2022-08-19T03:01:00;6.20;;;3.22;;
49310;SDS011;35177;45.900;5.946;2022-08-19T03:03:26;7.90;;;4.63;;
49310;SDS011;35177;45.900;5.946;2022-08-19T03:05:51;8.20;;;5.90;;
49310;SDS011;35177;45.900;5.946;2022-08-19T03:08:17;2.53;;;2.10;;
49310;SDS011;35177;45.900;5.946;2022-08-19T03:10:44;1.77;;;1.50;;
49310;SDS011;35177;45.900;5.946;2022-08-19T03:13:15;3.50;;;1.50;;
49310;SDS011;35177;45.900;5.946;2022-08-19T03:15:43;4.07;;;1.65;;
49310;SDS011;35177;45.900;5.946;2022-08-19T03:18:09;6.53;;;1.42;;
49310;SDS011;35177;45.900;5.946;2022-08-19T03:20:46;2.05;;;1.10;;
49310;SDS011;35177;45.900;5.946;2022-08-19T03:23:13;4.18;;;1.30;;
49310;SDS011;35177;45.900;5.946;2022-08-19T03:25:41;3.38;;;1.50;;
49310;SDS011;35177;45.900;5.946;2022-08-19T03:28:09;1.45;;;1.30;;
49310;SDS011;35177;45.900;5.946;2022-08-19T03:30:35;5.30;;;1.60;;
49310;SDS011;35177;45.900;5.946;2022-08-19T03:33:01;4.05;;;1.55;;
49310;SDS011;35177;45.900;5.946;2022-08-19T03:35:27;1.90;;;1.42;;
49310;SDS011;35177;45.900;5.946;2022-08-19T03:37:53;3.38;;;1.60;;
49310;SDS011;35177;45.900;5.946;2022-08-19T03:40:18;3.25;;;1.70;;
49310;SDS011;35177;45.900;5.946;2022-08-19T03:42:44;7.22;;;1.58;;
49310;SDS011;35177;45.900;5.946;2022-08-19T03:45:11;2.67;;;1.33;;
49310;SDS011;35177;45.900;5.946;2022-08-19T03:47:37;2.25;;;1.55;;
49310;SDS011;35177;45.900;5.946;2022-08-19T03:50:03;3.33;;;1.80;;
49310;SDS011;35177;45.900;5.946;2022-08-19T03:52:29;4.40;;;1.80;;
49310;SDS011;35177;45.900;5.946;2022-08-19T03:54:55;1.92;;;1.52;;
49310;SDS011;35177;45.900;5.946;2022-08-19T03:57:21;4.45;;;1.80;;
49310;SDS011;35177;45.900;5.946;2022-08-19T03:59:46;5.03;;;1.67;;
49310;SDS011;35177;45.900;5.946;2022-08-19T04:02:12;2.40;;;1.75;;
49310;SDS011;35177;45.900;5.946;2022-08-19T04:04:39;10.90;;;1.88;;
49310;SDS011;35177;45.900;5.946;2022-08-19T04:07:08;2.65;;;1.60;;
49310;SDS011;35177;45.900;5.946;2022-08-19T04:09:35;4.40;;;2.15;;
49310;SDS011;35177;45.900;5.946;2022-08-19T04:12:04;5.78;;;1.88;;
49310;SDS011;35177;45.900;5.946;2022-08-19T04:14:30;1.73;;;1.63;;
49310;SDS011;35177;45.900;5.946;2022-08-19T04:16:56;3.63;;;2.20;;
49310;SDS011;35177;45.900;5.946;2022-08-19T04:19:24;4.47;;;1.83;;
49310;SDS011;35177;45.900;5.946;2022-08-19T04:21:51;2.83;;;1.92;;
49310;SDS011;35177;45.900;5.946;2022-08-19T04:24:18;3.95;;;1.95;;
49310;SDS011;35177;45.900;5.946;2022-08-19T04:26:45;5.63;;;1.88;;
49310;SDS011;35177;45.900;5.946;2022-08-19T04:29:13;2.08;;;1.70;;
49310;SDS011;35177;45.900;5.946;2022-08-19T04:31:40;6.20;;;1.63;;
49310;SDS011;35177;45.900;5.946;2022-08-19T04:34:09;2.25;;;1.90;;
49310;SDS011;35177;45.900;5.946;2022-08-19T04:36:37;4.40;;;1.80;;
49310;SDS011;35177;45.900;5.946;2022-08-19T04:39:14;10.52;;;2.33;;
49310;SDS011;35177;45.900;5.946;2022-08-19T04:41:41;9.32;;;2.00;;
49310;SDS011;35177;45.900;5.946;2022-08-19T04:44:26;3.83;;;2.25;;
49310;SDS011;35177;45.900;5.946;2022-08-19T04:46:55;3.78;;;2.00;;
49310;SDS011;35177;45.900;5.946;2022-08-19T04:49:22;7.53;;;2.30;;
49310;SDS011;35177;45.900;5.946;2022-08-19T04:51:48;9.45;;;2.78;;
49310;SDS011;35177;45.900;5.946;2022-08-19T04:54:16;4.80;;;2.53;;
49310;SDS011;35177;45.900;5.946;2022-08-19T04:56:43;2.58;;;2.08;;
49310;SDS011;35177;45.900;5.946;2022-08-19T04:59:08;4.20;;;2.10;;
49310;SDS011;35177;45.900;5.946;2022-08-19T05:01:36;4.93;;;2.28;;
49310;SDS011;35177;45.900;5.946;2022-08-19T05:04:02;4.25;;;2.00;;
49310;SDS011;35177;45.900;5.946;2022-08-19T05:06:30;3.85;;;2.28;;
49310;SDS011;35177;45.900;5.946;2022-08-19T05:09:00;11.75;;;2.63;;
49310;SDS011;35177;45.900;5.946;2022-08-19T05:11:28;8.43;;;2.45;;
49310;SDS011;35177;45.900;5.946;2022-08-19T05:13:56;8.02;;;2.50;;
49310;SDS011;35177;45.900;5.946;2022-08-19T05:16:23;2.53;;;2.33;;
49310;SDS011;35177;45.900;5.946;2022-08-19T05:18:50;2.45;;;1.85;;
49310;SDS011;35177;45.900;5.946;2022-08-19T05:21:34;2.50;;;2.08;;
49310;SDS011;35177;45.900;5.946;2022-08-19T05:24:20;2.65;;;2.20;;
49310;SDS011;35177;45.900;5.946;2022-08-19T05:26:48;4.30;;;2.42;;
49310;SDS011;35177;45.900;5.946;2022-08-19T05:29:16;12.63;;;2.55;;
49310;SDS011;35177;45.900;5.946;2022-08-19T05:31:43;6.57;;;2.90;;
49310;SDS011;35177;45.900;5.946;2022-08-19T05:34:09;4.95;;;2.47;;
49310;SDS011;35177;45.900;5.946;2022-08-19T05:36:37;7.75;;;2.80;;
49310;SDS011;35177;45.900;5.946;2022-08-19T05:39:08;8.90;;;2.20;;
49310;SDS011;35177;45.900;5.946;2022-08-19T05:41:36;5.38;;;2.42;;
49310;SDS011;35177;45.900;5.946;2022-08-19T05:44:05;2.75;;;1.98;;
49310;SDS011;35177;45.900;5.946;2022-08-19T05:46:34;6.28;;;2.35;;
49310;SDS011;35177;45.900;5.946;2022-08-19T05:49:00;3.67;;;2.05;;
49310;SDS011;35177;45.900;5.946;2022-08-19T05:51:25;3.75;;;2.08;;
49310;SDS011;35177;45.900;5.946;2022-08-19T05:53:51;3.13;;;2.03;;
49310;SDS011;35177;45.900;5.946;2022-08-19T05:56:17;3.40;;;2.50;;
49310;SDS011;35177;45.900;5.946;2022-08-19T05:58:44;6.63;;;2.60;;
49310;SDS011;35177;45.900;5.946;2022-08-19T06:01:11;5.43;;;2.30;;
49310;SDS011;35177;45.900;5.946;2022-08-19T06:03:39;6.00;;;2.42;;
49310;SDS011;35177;45.900;5.946;2022-08-19T06:06:05;5.75;;;3.00;;
49310;SDS011;35177;45.900;5.946;2022-08-19T06:08:33;4.55;;;2.40;;
49310;SDS011;35177;45.900;5.946;2022-08-19T06:13:42;5.93;;;3.10;;
49310;SDS011;35177;45.900;5.946;2022-08-19T06:16:08;4.90;;;2.63;;
49310;SDS011;35177;45.900;5.946;2022-08-19T06:18:34;5.45;;;2.70;;
49310;SDS011;35177;45.900;5.946;2022-08-19T06:21:00;4.80;;;3.30;;
49310;SDS011;35177;45.900;5.946;2022-08-19T06:23:28;4.22;;;2.90;;
49310;SDS011;35177;45.900;5.946;2022-08-19T06:25:54;4.60;;;3.08;;
49310;SDS011;35177;45.900;5.946;2022-08-19T06:28:20;3.20;;;2.90;;
49310;SDS011;35177;45.900;5.946;2022-08-19T06:30:45;4.30;;;2.55;;
49310;SDS011;35177;45.900;5.946;2022-08-19T06:33:11;4.25;;;3.30;;
49310;SDS011;35177;45.900;5.946;2022-08-19T06:35:40;7.90;;;3.13;;
49310;SDS011;35177;45.900;5.946;2022-08-19T06:38:06;5.68;;;3.70;;
49310;SDS011;35177;45.900;5.946;2022-08-19T06:40:34;3.00;;;2.78;;
49310;SDS011;35177;45.900;5.946;2022-08-19T06:43:01;3.47;;;3.10;;
49310;SDS011;35177;45.900;5.946;2022-08-19T06:45:27;4.72;;;3.55;;
49310;SDS011;35177;45.900;5.946;2022-08-19T06:47:53;4.22;;;2.75;;
49310;SDS011;35177;45.900;5.946;2022-08-19T06:50:20;4.45;;;3.22;;
49310;SDS011;35177;45.900;5.946;2022-08-19T06:52:49;5.70;;;3.72;;
49310;SDS011;35177;45.900;5.946;2022-08-19T06:55:15;4.57;;;3.55;;
49310;SDS011;35177;45.900;5.946;2022-08-19T06:57:40;9.82;;;3.83;;
49310;SDS011;35177;45.900;5.946;2022-08-19T07:00:07;5.53;;;3.53;;
49310;SDS011;35177;45.900;5.946;2022-08-19T07:02:39;6.85;;;4.32;;
49310;SDS011;35177;45.900;5.946;2022-08-19T07:05:06;7.90;;;4.38;;
49310;SDS011;35177;45.900;5.946;2022-08-19T07:07:32;4.85;;;3.80;;
49310;SDS011;35177;45.900;5.946;2022-08-19T07:09:58;5.00;;;4.50;;
49310;SDS011;35177;45.900;5.946;2022-08-19T07:12:24;7.15;;;4.95;;
49310;SDS011;35177;45.900;5.946;2022-08-19T07:14:49;5.80;;;5.20;;
49310;SDS011;35177;45.900;5.946;2022-08-19T07:17:15;8.00;;;5.85;;
49310;SDS011;35177;45.900;5.946;2022-08-19T07:19:41;7.68;;;5.35;;
49310;SDS011;35177;45.900;5.946;2022-08-19T07:22:09;7.63;;;5.90;;
49310;SDS011;35177;45.900;5.946;2022-08-19T07:24:35;13.02;;;7.47;;
49310;SDS011;35177;45.900;5.946;2022-08-19T07:27:02;8.82;;;6.05;;
49310;SDS011;35177;45.900;5.946;2022-08-19T07:29:31;10.45;;;4.97;;
49310;SDS011;35177;45.900;5.946;2022-08-19T07:31:59;4.93;;;4.15;;
49310;SDS011;35177;45.900;5.946;2022-08-19T07:34:27;8.13;;;4.88;;
49310;SDS011;35177;45.900;5.946;2022-08-19T07:36:55;4.80;;;4.40;;
49310;SDS011;35177;45.900;5.946;2022-08-19T07:39:23;8.25;;;4.78;;
49310;SDS011;35177;45.900;5.946;2022-08-19T07:41:51;4.63;;;4.20;;
49310;SDS011;35177;45.900;5.946;2022-08-19T07:44:18;6.68;;;4.63;;
49310;SDS011;35177;45.900;5.946;2022-08-19T07:46:47;5.70;;;4.10;;
49310;SDS011;35177;45.900;5.946;2022-08-19T07:49:14;4.97;;;4.32;;
49310;SDS011;35177;45.900;5.946;2022-08-19T07:51:52;7.63;;;4.45;;
49310;SDS011;35177;45.900;5.946;2022-08-19T07:54:20;7.78;;;5.22;;
49310;SDS011;35177;45.900;5.946;2022-08-19T07:56:46;9.05;;;5.68;;
49310;SDS011;35177;45.900;5.946;2022-08-19T07:59:12;7.22;;;5.53;;
49310;SDS011;35177;45.900;5.946;2022-08-19T08:01:38;8.13;;;5.95;;
49310;SDS011;35177;45.900;5.946;2022-08-19T08:04:05;7.93;;;5.93;;
49310;SDS011;35177;45.900;5.946;2022-08-19T08:06:49;8.38;;;6.10;;
49310;SDS011;35177;45.900;5.946;2022-08-19T08:09:35;7.20;;;6.45;;
49310;SDS011;35177;45.900;5.946;2022-08-19T08:12:10;6.82;;;5.90;;
49310;SDS011;35177;45.900;5.946;2022-08-19T08:14:43;10.18;;;6.63;;
49310;SDS011;35177;45.900;5.946;2022-08-19T08:17:12;6.45;;;5.30;;
49310;SDS011;35177;45.900;5.946;2022-08-19T08:19:40;6.82;;;5.22;;
49310;SDS011;35177;45.900;5.946;2022-08-19T08:22:06;6.05;;;4.45;;
49310;SDS011;35177;45.900;5.946;2022-08-19T08:24:53;5.10;;;4.10;;
49310;SDS011;35177;45.900;5.946;2022-08-19T08:27:19;5.22;;;3.97;;
49310;SDS011;35177;45.900;5.946;2022-08-19T08:29:45;4.57;;;3.53;;
49310;SDS011;35177;45.900;5.946;2022-08-19T08:32:10;7.55;;;4.40;;
49310;SDS011;35177;45.900;5.946;2022-08-19T08:34:36;4.05;;;3.72;;
49310;SDS011;35177;45.900;5.946;2022-08-19T08:37:02;4.30;;;3.50;;
49310;SDS011;35177;45.900;5.946;2022-08-19T08:39:28;3.88;;;3.53;;
49310;SDS011;35177;45.900;5.946;2022-08-19T08:41:58;5.10;;;3.60;;
49310;SDS011;35177;45.900;5.946;2022-08-19T08:47:02;5.35;;;3.83;;
49310;SDS011;35177;45.900;5.946;2022-08-19T08:49:52;4.07;;;3.78;;
49310;SDS011;35177;45.900;5.946;2022-08-19T08:52:29;3.90;;;3.50;;
49310;SDS011;35177;45.900;5.946;2022-08-19T08:55:09;5.90;;;5.00;;
49310;SDS011;35177;45.900;5.946;2022-08-19T09:00:36;5.40;;;3.80;;
49310;SDS011;35177;45.900;5.946;2022-08-19T09:03:02;4.45;;;4.05;;
49310;SDS011;35177;45.900;5.946;2022-08-19T09:05:55;5.00;;;3.83;;
49310;SDS011;35177;45.900;5.946;2022-08-19T09:08:45;4.63;;;4.05;;
49310;SDS011;35177;45.900;5.946;2022-08-19T09:11:23;4.30;;;3.83;;
49310;SDS011;35177;45.900;5.946;2022-08-19T09:16:46;4.35;;;3.95;;
49310;SDS011;35177;45.900;5.946;2022-08-19T09:19:13;4.00;;;3.70;;
49310;SDS011;35177;45.900;5.946;2022-08-19T09:21:38;8.60;;;4.15;;
49310;SDS011;35177;45.900;5.946;2022-08-19T09:24:04;5.60;;;4.28;;
49310;SDS011;35177;45.900;5.946;2022-08-19T09:26:31;4.38;;;3.97;;
49310;SDS011;35177;45.900;5.946;2022-08-19T09:28:57;5.88;;;4.10;;
49310;SDS011;35177;45.900;5.946;2022-08-19T09:31:26;5.70;;;4.10;;
49310;SDS011;35177;45.900;5.946;2022-08-19T09:33:54;4.32;;;3.85;;
49310;SDS011;35177;45.900;5.946;2022-08-19T09:36:23;4.18;;;3.88;;
49310;SDS011;35177;45.900;5.946;2022-08-19T09:38:51;4.43;;;3.72;;
49310;SDS011;35177;45.900;5.946;2022-08-19T09:41:19;4.28;;;3.88;;
49310;SDS011;35177;45.900;5.946;2022-08-19T09:43:46;5.22;;;3.83;;
49310;SDS011;35177;45.900;5.946;2022-08-19T09:46:17;6.13;;;3.60;;
49310;SDS011;35177;45.900;5.946;2022-08-19T09:48:46;4.85;;;4.32;;
49310;SDS011;35177;45.900;5.946;2022-08-19T09:51:16;4.22;;;3.83;;
49310;SDS011;35177;45.900;5.946;2022-08-19T09:53:46;3.85;;;3.33;;
49310;SDS011;35177;45.900;5.946;2022-08-19T09:56:15;5.47;;;3.67;;
49310;SDS011;35177;45.900;5.946;2022-08-19T09:58:42;3.90;;;3.58;;
49310;SDS011;35177;45.900;5.946;2022-08-19T10:01:07;4.13;;;3.72;;
49310;SDS011;35177;45.900;5.946;2022-08-19T10:03:34;4.65;;;3.70;;
49310;SDS011;35177;45.900;5.946;2022-08-19T10:06:02;4.53;;;3.35;;
49310;SDS011;35177;45.900;5.946;2022-08-19T10:08:31;5.65;;;4.57;;
49310;SDS011;35177;45.900;5.946;2022-08-19T10:10:58;4.78;;;3.97;;
49310;SDS011;35177;45.900;5.946;2022-08-19T10:13:26;4.30;;;4.00;;
49310;SDS011;35177;45.900;5.946;2022-08-19T10:15:53;3.63;;;3.30;;
49310;SDS011;35177;45.900;5.946;2022-08-19T10:18:22;5.82;;;4.28;;
49310;SDS011;35177;45.900;5.946;2022-08-19T10:20:48;4.60;;;4.20;;
49310;SDS011;35177;45.900;5.946;2022-08-19T10:23:16;5.07;;;4.15;;
49310;SDS011;35177;45.900;5.946;2022-08-19T10:25:42;5.60;;;4.38;;
49310;SDS011;35177;45.900;5.946;2022-08-19T10:28:08;5.07;;;4.35;;
49310;SDS011;35177;45.900;5.946;2022-08-19T10:30:37;4.90;;;4.20;;
49310;SDS011;35177;45.900;5.946;2022-08-19T10:33:03;4.30;;;3.90;;
49310;SDS011;35177;45.900;5.946;2022-08-19T10:35:29;4.55;;;4.15;;
49310;SDS011;35177;45.900;5.946;2022-08-19T10:37:55;5.03;;;4.43;;
49310;SDS011;35177;45.900;5.946;2022-08-19T10:40:26;5.10;;;4.30;;
49310;SDS011;35177;45.900;5.946;2022-08-19T10:42:53;6.55;;;4.65;;
49310;SDS011;35177;45.900;5.946;2022-08-19T10:45:20;5.70;;;4.68;;
49310;SDS011;35177;45.900;5.946;2022-08-19T10:47:48;4.88;;;4.47;;
49310;SDS011;35177;45.900;5.946;2022-08-19T10:50:14;8.23;;;4.82;;
49310;SDS011;35177;45.900;5.946;2022-08-19T10:52:57;4.90;;;4.50;;
49310;SDS011;35177;45.900;5.946;2022-08-19T10:55:29;5.18;;;4.68;;
49310;SDS011;35177;45.900;5.946;2022-08-19T10:58:13;5.30;;;4.90;;
49310;SDS011;35177;45.900;5.946;2022-08-19T11:00:41;5.45;;;4.95;;
49310;SDS011;35177;45.900;5.946;2022-08-19T11:03:10;5.60;;;5.10;;
49310;SDS011;35177;45.900;5.946;2022-08-19T11:05:36;5.63;;;5.07;;
49310;SDS011;35177;45.900;5.946;2022-08-19T11:08:03;6.15;;;5.40;;
49310;SDS011;35177;45.900;5.946;2022-08-19T11:10:28;9.43;;;5.50;;
49310;SDS011;35177;45.900;5.946;2022-08-19T11:12:54;5.85;;;5.28;;
49310;SDS011;35177;45.900;5.946;2022-08-19T11:15:20;6.10;;;5.57;;
49310;SDS011;35177;45.900;5.946;2022-08-19T11:17:46;7.03;;;5.43;;
49310;SDS011;35177;45.900;5.946;2022-08-19T11:20:12;6.30;;;5.70;;
49310;SDS011;35177;45.900;5.946;2022-08-19T11:22:40;5.78;;;5.28;;
49310;SDS011;35177;45.900;5.946;2022-08-19T11:25:07;5.95;;;5.35;;
49310;SDS011;35177;45.900;5.946;2022-08-19T11:27:36;5.60;;;5.13;;
49310;SDS011;35177;45.900;5.946;2022-08-19T11:30:10;5.95;;;5.03;;
49310;SDS011;35177;45.900;5.946;2022-08-19T11:32:37;5.68;;;5.18;;
49310;SDS011;35177;45.900;5.946;2022-08-19T11:35:03;8.00;;;5.40;;
49310;SDS011;35177;45.900;5.946;2022-08-19T11:37:29;5.70;;;4.93;;
49310;SDS011;35177;45.900;5.946;2022-08-19T11:39:54;7.40;;;5.60;;
49310;SDS011;35177;45.900;5.946;2022-08-19T11:42:20;7.68;;;5.43;;
49310;SDS011;35177;45.900;5.946;2022-08-19T11:45:04;6.03;;;5.43;;
49310;SDS011;35177;45.900;5.946;2022-08-19T11:47:30;7.32;;;5.75;;
49310;SDS011;35177;45.900;5.946;2022-08-19T11:49:55;6.40;;;5.80;;
49310;SDS011;35177;45.900;5.946;2022-08-19T11:52:21;8.18;;;5.80;;
49310;SDS011;35177;45.900;5.946;2022-08-19T11:54:46;8.95;;;5.47;;
49310;SDS011;35177;45.900;5.946;2022-08-19T11:57:12;5.47;;;4.97;;
49310;SDS011;35177;45.900;5.946;2022-08-19T11:59:41;7.75;;;5.78;;
49310;SDS011;35177;45.900;5.946;2022-08-19T12:02:07;8.18;;;5.57;;
49310;SDS011;35177;45.900;5.946;2022-08-19T12:04:33;5.85;;;5.25;;
49310;SDS011;35177;45.900;5.946;2022-08-19T12:06:59;5.95;;;5.45;;
49310;SDS011;35177;45.900;5.946;2022-08-19T12:09:25;7.22;;;5.72;;
49310;SDS011;35177;45.900;5.946;2022-08-19T12:11:50;7.15;;;5.90;;
49310;SDS011;35177;45.900;5.946;2022-08-19T12:14:16;8.07;;;6.20;;
49310;SDS011;35177;45.900;5.946;2022-08-19T12:16:43;6.60;;;5.30;;
49310;SDS011;35177;45.900;5.946;2022-08-19T12:19:11;9.38;;;5.60;;
49310;SDS011;35177;45.900;5.946;2022-08-19T12:21:36;5.95;;;5.45;;
49310;SDS011;35177;45.900;5.946;2022-08-19T12:24:02;6.38;;;5.80;;
49310;SDS011;35177;45.900;5.946;2022-08-19T12:26:30;6.47;;;5.80;;
49310;SDS011;35177;45.900;5.946;2022-08-19T12:28:56;6.38;;;5.80;;
49310;SDS011;35177;45.900;5.946;2022-08-19T12:31:23;6.10;;;5.50;;
49310;SDS011;35177;45.900;5.946;2022-08-19T12:33:49;5.70;;;5.25;;
49310;SDS011;35177;45.900;5.946;2022-08-19T12:36:15;5.95;;;5.35;;
49310;SDS011;35177;45.900;5.946;2022-08-19T12:38:42;6.43;;;5.30;;
49310;SDS011;35177;45.900;5.946;2022-08-19T12:41:10;6.88;;;5.07;;
49310;SDS011;35177;45.900;5.946;2022-08-19T12:43:38;6.05;;;5.43;;
49310;SDS011;35177;45.900;5.946;2022-08-19T12:46:04;7.05;;;4.97;;
49310;SDS011;35177;45.900;5.946;2022-08-19T12:48:33;4.97;;;4.57;;
49310;SDS011;35177;45.900;5.946;2022-08-19T12:50:59;5.90;;;5.30;;
49310;SDS011;35177;45.900;5.946;2022-08-19T12:53:26;5.45;;;5.00;;
49310;SDS011;35177;45.900;5.946;2022-08-19T12:55:59;5.03;;;4.63;;
49310;SDS011;35177;45.900;5.946;2022-08-19T12:58:25;10.30;;;5.50;;
49310;SDS011;35177;45.900;5.946;2022-08-19T13:00:51;8.63;;;5.28;;
49310;SDS011;35177;45.900;5.946;2022-08-19T13:03:17;7.30;;;4.90;;
49310;SDS011;35177;45.900;5.946;2022-08-19T13:05:43;6.95;;;5.07;;
49310;SDS011;35177;45.900;5.946;2022-08-19T13:08:08;5.25;;;4.75;;
49310;SDS011;35177;45.900;5.946;2022-08-19T13:10:34;9.05;;;5.10;;
49310;SDS011;35177;45.900;5.946;2022-08-19T13:13:01;7.18;;;5.18;;
49310;SDS011;35177;45.900;5.946;2022-08-19T13:15:32;5.40;;;4.53;;
49310;SDS011;35177;45.900;5.946;2022-08-19T13:17:59;6.13;;;4.90;;
49310;SDS011;35177;45.900;5.946;2022-08-19T13:20:24;5.45;;;5.03;;
49310;SDS011;35177;45.900;5.946;2022-08-19T13:22:51;6.15;;;5.22;;
49310;SDS011;35177;45.900;5.946;2022-08-19T13:25:16;5.43;;;4.93;;
49310;SDS011;35177;45.900;5.946;2022-08-19T13:27:44;5.63;;;5.00;;
49310;SDS011;35177;45.900;5.946;2022-08-19T13:30:11;5.65;;;5.13;;
49310;SDS011;35177;45.900;5.946;2022-08-19T13:32:57;5.72;;;5.22;;
49310;SDS011;35177;45.900;5.946;2022-08-19T13:38:09;7.18;;;6.47;;
49310;SDS011;35177;45.900;5.946;2022-08-19T13:40:35;7.97;;;7.10;;
49310;SDS011;35177;45.900;5.946;2022-08-19T13:43:02;9.40;;;8.07;;
49310;SDS011;35177;45.900;5.946;2022-08-19T13:45:31;9.65;;;8.45;;
49310;SDS011;35177;45.900;5.946;2022-08-19T13:48:01;9.93;;;8.50;;
49310;SDS011;35177;45.900;5.946;2022-08-19T13:50:31;9.80;;;8.80;;
49310;SDS011;35177;45.900;5.946;2022-08-19T13:52:58;10.57;;;9.50;;
49310;SDS011;35177;45.900;5.946;2022-08-19T13:55:24;9.80;;;8.52;;
49310;SDS011;35177;45.900;5.946;2022-08-19T13:57:54;9.77;;;8.77;;
49310;SDS011;35177;45.900;5.946;2022-08-19T14:00:22;10.32;;;8.52;;
49310;SDS011;35177;45.900;5.946;2022-08-19T14:02:50;10.23;;;7.88;;
49310;SDS011;35177;45.900;5.946;2022-08-19T14:05:18;11.07;;;8.52;;
49310;SDS011;35177;45.900;5.946;2022-08-19T14:07:44;8.80;;;8.00;;
49310;SDS011;35177;45.900;5.946;2022-08-19T14:10:11;8.90;;;8.00;;
49310;SDS011;35177;45.900;5.946;2022-08-19T14:12:37;8.50;;;7.70;;
49310;SDS011;35177;45.900;5.946;2022-08-19T14:15:04;8.10;;;7.30;;
49310;SDS011;35177;45.900;5.946;2022-08-19T14:17:31;9.77;;;8.02;;
49310;SDS011;35177;45.900;5.946;2022-08-19T14:20:00;8.70;;;7.75;;
49310;SDS011;35177;45.900;5.946;2022-08-19T14:22:32;6.97;;;6.38;;
49310;SDS011;35177;45.900;5.946;2022-08-19T14:24:58;7.93;;;7.15;;
49310;SDS011;35177;45.900;5.946;2022-08-19T14:27:24;8.00;;;6.85;;
49310;SDS011;35177;45.900;5.946;2022-08-19T14:33:03;6.82;;;6.22;;
49310;SDS011;35177;45.900;5.946;2022-08-19T14:35:30;7.03;;;6.32;;
49310;SDS011;35177;45.900;5.946;2022-08-19T14:37:59;7.28;;;6.57;;
49310;SDS011;35177;45.900;5.946;2022-08-19T14:40:26;8.73;;;6.85;;
49310;SDS011;35177;45.900;5.946;2022-08-19T14:42:55;9.05;;;6.25;;
49310;SDS011;35177;45.900;5.946;2022-08-19T14:45:25;8.48;;;7.30;;
49310;SDS011;35177;45.900;5.946;2022-08-19T14:47:54;8.55;;;6.82;;
49310;SDS011;35177;45.900;5.946;2022-08-19T14:50:20;8.48;;;6.50;;
49310;SDS011;35177;45.900;5.946;2022-08-19T14:52:46;7.63;;;6.35;;
49310;SDS011;35177;45.900;5.946;2022-08-19T14:55:13;7.57;;;6.88;;
49310;SDS011;35177;45.900;5.946;2022-08-19T14:57:42;7.45;;;6.75;;
49310;SDS011;35177;45.900;5.946;2022-08-19T15:00:09;8.15;;;7.38;;
49310;SDS011;35177;45.900;5.946;2022-08-19T15:02:39;7.60;;;6.53;;
49310;SDS011;35177;45.900;5.946;2022-08-19T15:05:05;7.90;;;7.10;;
49310;SDS011;35177;45.900;5.946;2022-08-19T15:07:31;8.35;;;7.55;;
49310;SDS011;35177;45.900;5.946;2022-08-19T15:09:57;11.25;;;8.80;;